Main page
METAR-TAF:

METAR-TAF

Airports :

Brighton City Airport (Shoreham Airport)

Brighton, England

latitude: 50-50N, longitude: 000-17W, elevation: 2 m

Current weather observation

The report was made 40 minutes ago, at 18:50 UTC
Wind 12 kt from the South
Temperature 15°C
Humidity 88%
Pressure 1009 hPa
Visibility 10 km or more
Scattered clouds at a height of 1200 ft

METAR: EGKA 251850Z 17012KT 9999 SCT012 15/13 Q1009

Time: 20:30 (19:30 UTC)

Forecast

The report was made 5 hours and 26 minutes ago, at 14:04 UTC
Forecast valid from 25 at 15 UTC to 25 at 19 UTC
Wind 11 kt from the South
Visibility 10 km or more
Few clouds at a height of 4500 ft
Probability 30% :
Temporary
from 25 at 15 UTC to 25 at 19 UTC
Visibility: 8000 m
rain

TAF: EGKA 251404Z 2515/2519 19011KT 9999 FEW045 PROB30 TEMPO 2515/2519 8000 RA

Weather observations and forecasts of more than 4000 airports (METAR and TAF reports).

The available stations are represented by yellow and red dots on the map.

Hover mouse over dot to see the name of the station.

Then click to see weather observations and forecasts.

To change the map : click on the green buttons with a black cross to zoom in, on the green button with a dash to zoom out, or on the green arrows for adjacent maps.


METAR-TAF: